Grafton, ND

12:22 PM CDT on May 03, 2015 (GMT -0500)
Hallock Municipal | | Change Station
CLOSE
Current Station
Airport
Location: Hallock,
Elevation: 820 ft
Nearby Weather Stations

Elev 820 ft 48.75 °N, 96.94 °W | Updated 8 minutes ago

Clear
Clear
61 °F
Feels Like 61 °F
N
21
Wind Variable Wind from NW
Gusts 29 mph

Today
High -- | Low -- °F
--% Chance of Precip.
Yesterday
High -- | Low -- °F
Precip. -- in
6:07 AM 8:46 PM
Full, 100% visible
Pressure 29.87 in
Visibility 10.0 miles
Clouds Clear
Dew Point 25 °F
Humidity 25%
Rainfall 0.00 in
Snow Depth Not available.
UV 8 out of 12
Pollen 11.00 out of 12
Air Quality Not available.
Flu Activity Regional
METAR KHCO 031714Z AUTO 31018G25KT 10SM CLR 16/M04 A2987 RMK AO2

More Conditions Fewer Conditions

Pressure 29.87 in
Visibility 10.0 miles
Clouds Clear
Dew Point 25 °F
Humidity 25%
Rainfall 0.00 in
Snow Depth Not available.
UV 8 out of 12
Pollen 11.00 out of 12
Air Quality Not available.
Flu Activity Regional
METAR KHCO 031714Z AUTO 31018G25KT 10SM CLR 16/M04 A2987 RMK AO2

More Conditions Fewer Conditions

Nepal has a long way to go to dig out and rebuild from a devastating earthquake. We have teamed up with several charities and organizations to make contributing to the relief effort as easy as possible.
How you can help: Portlight Strategies | Red Cross

10-Day Weather Forecast

Almanac

Astronomy

May. 03, 2015 Rise Set
Actual Time
Civil Twilight
Nautical Twilight
Astronomical Twilight
Moon
Length of Visible Light
Length of Day
Tomorrow will be .
, % of the Moon is Illuminated

Today's Extremes

State Highs State Lows

Community

WunderPhotos

Upload Photos

1,818,294 photos uploaded!

WunderBlogs® & News

Nearby

Air Quality

  Air Quality AQ Index Pollutant
Not available.

Snow Depth

Station Depth Elevation

Earthquake Activity

City Distance Mag. Time & Date
Minimum magnitude displayed is 2.5.

Coastal Water Temperatures

Place Temperature

Stations

Nearby Weather Stations

Station Location Temp. Windchill Dew Point Humidity Wind Precip. Elev Updated Type